sensor_id;sensor_type;location;lat;lon;timestamp;pressure;altitude;pressure_sealevel;temperature;humidity
77590;BME280;66746;51.328;12.332;2023-07-08T00:00:13;100743.78;;;19.66;48.67
77590;BME280;66746;51.328;12.332;2023-07-08T00:02:45;100743.59;;;19.69;48.79
77590;BME280;66746;51.328;12.332;2023-07-08T00:05:16;100732.78;;;19.66;48.75
77590;BME280;66746;51.328;12.332;2023-07-08T00:07:43;100738.28;;;19.66;48.79
77590;BME280;66746;51.328;12.332;2023-07-08T00:10:16;100745.56;;;19.67;49.00
77590;BME280;66746;51.328;12.332;2023-07-08T00:12:45;100744.00;;;19.63;49.02
77590;BME280;66746;51.328;12.332;2023-07-08T00:15:12;100742.22;;;19.62;49.32
77590;BME280;66746;51.328;12.332;2023-07-08T00:17:38;100744.00;;;19.63;49.38
77590;BME280;66746;51.328;12.332;2023-07-08T00:20:11;100741.44;;;19.60;49.56
77590;BME280;66746;51.328;12.332;2023-07-08T00:22:38;100741.69;;;19.57;49.56
77590;BME280;66746;51.328;12.332;2023-07-08T00:25:05;100733.53;;;19.56;49.96
77590;BME280;66746;51.328;12.332;2023-07-08T00:27:33;100726.56;;;19.50;49.71
77590;BME280;66746;51.328;12.332;2023-07-08T00:29:59;100724.81;;;19.49;49.99
77590;BME280;66746;51.328;12.332;2023-07-08T00:32:26;100727.88;;;19.45;49.91
77590;BME280;66746;51.328;12.332;2023-07-08T00:34:52;100723.47;;;19.42;49.83
77590;BME280;66746;51.328;12.332;2023-07-08T00:37:19;100721.69;;;19.41;50.14
77590;BME280;66746;51.328;12.332;2023-07-08T00:39:45;100722.69;;;19.40;50.84
77590;BME280;66746;51.328;12.332;2023-07-08T00:42:16;100720.13;;;19.37;50.39
77590;BME280;66746;51.328;12.332;2023-07-08T00:44:44;100733.91;;;19.37;50.55
77590;BME280;66746;51.328;12.332;2023-07-08T00:47:12;100720.38;;;19.34;50.39
77590;BME280;66746;51.328;12.332;2023-07-08T00:49:44;100724.97;;;19.33;50.75
77590;BME280;66746;51.328;12.332;2023-07-08T00:52:20;100723.13;;;19.34;50.56
77590;BME280;66746;51.328;12.332;2023-07-08T00:54:49;100733.22;;;19.33;50.58
77590;BME280;66746;51.328;12.332;2023-07-08T00:57:16;100713.69;;;19.24;51.09
77590;BME280;66746;51.328;12.332;2023-07-08T00:59:49;100718.28;;;19.23;51.76
77590;BME280;66746;51.328;12.332;2023-07-08T01:02:21;100728.81;;;19.17;51.22
77590;BME280;66746;51.328;12.332;2023-07-08T01:04:52;100723.31;;;19.17;51.07
77590;BME280;66746;51.328;12.332;2023-07-08T01:07:19;100716.06;;;19.16;51.67
77590;BME280;66746;51.328;12.332;2023-07-08T01:09:47;100711.19;;;19.07;51.54
77590;BME280;66746;51.328;12.332;2023-07-08T01:12:17;100719.22;;;19.10;51.90
77590;BME280;66746;51.328;12.332;2023-07-08T01:14:47;100723.94;;;19.08;52.40
77590;BME280;66746;51.328;12.332;2023-07-08T01:17:15;100722.38;;;19.04;52.01
77590;BME280;66746;51.328;12.332;2023-07-08T01:19:42;100727.09;;;19.02;52.26
77590;BME280;66746;51.328;12.332;2023-07-08T01:22:11;100724.63;;;18.97;52.31
77590;BME280;66746;51.328;12.332;2023-07-08T01:24:41;100725.84;;;18.93;52.58
77590;BME280;66746;51.328;12.332;2023-07-08T01:27:08;100732.22;;;18.94;52.77
77590;BME280;66746;51.328;12.332;2023-07-08T01:29:36;100722.31;;;18.91;52.49
77590;BME280;66746;51.328;12.332;2023-07-08T01:32:03;100722.41;;;18.90;52.48
77590;BME280;66746;51.328;12.332;2023-07-08T01:34:31;100722.50;;;18.88;52.98
77590;BME280;66746;51.328;12.332;2023-07-08T01:36:58;100728.13;;;18.87;53.19
77590;BME280;66746;51.328;12.332;2023-07-08T01:39:29;100715.06;;;18.76;52.79
77590;BME280;66746;51.328;12.332;2023-07-08T01:41:56;100714.97;;;18.78;53.48
77590;BME280;66746;51.328;12.332;2023-07-08T01:44:28;100724.81;;;18.68;54.42
77590;BME280;66746;51.328;12.332;2023-07-08T01:46:57;100719.00;;;18.58;55.09
77590;BME280;66746;51.328;12.332;2023-07-08T01:49:25;100720.28;;;18.52;54.22
77590;BME280;66746;51.328;12.332;2023-07-08T01:51:52;100722.25;;;18.50;54.72
77590;BME280;66746;51.328;12.332;2023-07-08T01:54:18;100716.19;;;18.45;54.69
77590;BME280;66746;51.328;12.332;2023-07-08T01:56:46;100714.97;;;18.35;54.93
77590;BME280;66746;51.328;12.332;2023-07-08T01:59:13;100720.28;;;18.24;55.99
77590;BME280;66746;51.328;12.332;2023-07-08T02:01:39;100713.78;;;18.11;56.67
77590;BME280;66746;51.328;12.332;2023-07-08T02:04:05;100711.59;;;18.02;57.24
77590;BME280;66746;51.328;12.332;2023-07-08T02:06:32;100705.19;;;17.88;57.53
77590;BME280;66746;51.328;12.332;2023-07-08T02:09:05;100710.22;;;17.81;57.83
77590;BME280;66746;51.328;12.332;2023-07-08T02:11:32;100709.78;;;17.73;58.10
77590;BME280;66746;51.328;12.332;2023-07-08T02:13:59;100714.75;;;17.66;58.44
77590;BME280;66746;51.328;12.332;2023-07-08T02:16:26;100706.03;;;17.60;58.32
77590;BME280;66746;51.328;12.332;2023-07-08T02:18:53;100715.59;;;17.53;58.52
77590;BME280;66746;51.328;12.332;2023-07-08T02:21:19;100713.19;;;17.47;60.06
77590;BME280;66746;51.328;12.332;2023-07-08T02:23:49;100704.63;;;17.37;59.97
77590;BME280;66746;51.328;12.332;2023-07-08T02:26:16;100705.19;;;17.28;59.77
77590;BME280;66746;51.328;12.332;2023-07-08T02:28:42;100700.25;;;17.19;60.47
77590;BME280;66746;51.328;12.332;2023-07-08T02:31:10;100704.06;;;17.17;60.79
77590;BME280;66746;51.328;12.332;2023-07-08T02:33:37;100707.16;;;17.11;61.21
77590;BME280;66746;51.328;12.332;2023-07-08T02:36:03;100707.44;;;17.06;61.77
77590;BME280;66746;51.328;12.332;2023-07-08T02:38:30;100701.34;;;17.01;61.67
77590;BME280;66746;51.328;12.332;2023-07-08T02:41:06;100678.56;;;16.85;62.11
77590;BME280;66746;51.328;12.332;2023-07-08T02:43:37;100693.13;;;16.86;62.39
77590;BME280;66746;51.328;12.332;2023-07-08T02:46:05;100674.84;;;16.70;62.55
77590;BME280;66746;51.328;12.332;2023-07-08T02:48:39;100715.66;;;16.91;62.62
77590;BME280;66746;51.328;12.332;2023-07-08T02:51:10;100692.34;;;16.68;62.67
77590;BME280;66746;51.328;12.332;2023-07-08T02:53:43;100699.66;;;16.67;63.06
77590;BME280;66746;51.328;12.332;2023-07-08T02:56:10;100688.41;;;16.56;63.09
77590;BME280;66746;51.328;12.332;2023-07-08T02:58:37;100691.34;;;16.53;63.21
77590;BME280;66746;51.328;12.332;2023-07-08T03:01:13;100704.50;;;16.62;63.57
77590;BME280;66746;51.328;12.332;2023-07-08T03:03:44;100696.03;;;16.51;64.10
77590;BME280;66746;51.328;12.332;2023-07-08T03:06:11;100722.72;;;16.63;64.51
77590;BME280;66746;51.328;12.332;2023-07-08T03:08:41;100723.06;;;16.57;64.53
77590;BME280;66746;51.328;12.332;2023-07-08T03:11:12;100724.31;;;16.52;64.59
77590;BME280;66746;51.328;12.332;2023-07-08T03:13:43;100688.19;;;16.28;64.55
77590;BME280;66746;51.328;12.332;2023-07-08T03:16:10;100702.34;;;16.36;64.86
77590;BME280;66746;51.328;12.332;2023-07-08T03:18:37;100723.72;;;16.45;65.42
77590;BME280;66746;51.328;12.332;2023-07-08T03:21:07;100697.22;;;16.30;65.56
77590;BME280;66746;51.328;12.332;2023-07-08T03:23:36;100694.63;;;16.27;66.10
77590;BME280;66746;51.328;12.332;2023-07-08T03:26:13;100684.44;;;16.14;65.80
77590;BME280;66746;51.328;12.332;2023-07-08T03:28:41;100705.03;;;16.21;66.12
77590;BME280;66746;51.328;12.332;2023-07-08T03:31:10;100719.34;;;16.26;66.87
77590;BME280;66746;51.328;12.332;2023-07-08T03:33:37;100705.09;;;16.19;67.00
77590;BME280;66746;51.328;12.332;2023-07-08T03:36:11;100707.13;;;16.16;66.82
77590;BME280;66746;51.328;12.332;2023-07-08T03:38:39;100717.66;;;16.23;66.62
77590;BME280;66746;51.328;12.332;2023-07-08T03:41:05;100728.44;;;16.26;66.28
77590;BME280;66746;51.328;12.332;2023-07-08T03:43:32;100729.88;;;16.33;66.86
77590;BME280;66746;51.328;12.332;2023-07-08T03:46:02;100726.19;;;16.34;66.92
77590;BME280;66746;51.328;12.332;2023-07-08T03:48:29;100715.38;;;16.31;67.09
77590;BME280;66746;51.328;12.332;2023-07-08T03:51:02;100729.44;;;16.41;67.07
77590;BME280;66746;51.328;12.332;2023-07-08T03:53:31;100730.19;;;16.44;66.31
77590;BME280;66746;51.328;12.332;2023-07-08T03:55:57;100735.34;;;16.50;65.39
77590;BME280;66746;51.328;12.332;2023-07-08T03:58:25;100719.22;;;16.44;66.02
77590;BME280;66746;51.328;12.332;2023-07-08T04:00:52;100739.16;;;16.63;65.76
77590;BME280;66746;51.328;12.332;2023-07-08T04:03:19;100735.28;;;16.67;65.70
77590;BME280;66746;51.328;12.332;2023-07-08T04:05:50;100700.63;;;16.51;65.35
77590;BME280;66746;51.328;12.332;2023-07-08T04:08:17;100734.13;;;16.71;64.76
77590;BME280;66746;51.328;12.332;2023-07-08T04:10:45;100709.97;;;16.62;65.29
77590;BME280;66746;51.328;12.332;2023-07-08T04:13:12;100729.09;;;16.79;64.84
77590;BME280;66746;51.328;12.332;2023-07-08T04:15:39;100728.91;;;16.83;65.27
77590;BME280;66746;51.328;12.332;2023-07-08T04:18:08;100728.75;;;16.86;65.12
77590;BME280;66746;51.328;12.332;2023-07-08T04:20:35;100705.59;;;16.75;64.80
77590;BME280;66746;51.328;12.332;2023-07-08T04:23:02;100734.66;;;16.94;65.02
77590;BME280;66746;51.328;12.332;2023-07-08T04:25:29;100727.41;;;16.93;64.39
77590;BME280;66746;51.328;12.332;2023-07-08T04:27:57;100736.25;;;16.98;64.63
77590;BME280;66746;51.328;12.332;2023-07-08T04:30:30;100724.69;;;16.93;64.71
77590;BME280;66746;51.328;12.332;2023-07-08T04:33:02;100726.06;;;17.00;64.47
77590;BME280;66746;51.328;12.332;2023-07-08T04:35:32;100695.69;;;16.89;64.19
77590;BME280;66746;51.328;12.332;2023-07-08T04:37:59;100737.03;;;17.15;63.61
77590;BME280;66746;51.328;12.332;2023-07-08T04:40:32;100738.56;;;17.21;64.49
77590;BME280;66746;51.328;12.332;2023-07-08T04:43:21;100717.13;;;17.12;63.98
77590;BME280;66746;51.328;12.332;2023-07-08T04:45:51;100717.59;;;17.20;64.53
77590;BME280;66746;51.328;12.332;2023-07-08T04:48:23;100709.97;;;17.25;63.69
77590;BME280;66746;51.328;12.332;2023-07-08T04:51:26;100736.47;;;17.40;63.95
77590;BME280;66746;51.328;12.332;2023-07-08T04:53:52;100733.63;;;17.41;64.55
77590;BME280;66746;51.328;12.332;2023-07-08T04:56:19;100724.09;;;17.33;63.94
77590;BME280;66746;51.328;12.332;2023-07-08T04:58:47;100736.13;;;17.46;63.49
77590;BME280;66746;51.328;12.332;2023-07-08T05:01:13;100734.16;;;17.48;63.75
77590;BME280;66746;51.328;12.332;2023-07-08T05:03:40;100737.38;;;17.56;62.89
77590;BME280;66746;51.328;12.332;2023-07-08T05:06:07;100741.50;;;17.63;64.03
77590;BME280;66746;51.328;12.332;2023-07-08T05:08:34;100753.06;;;17.68;63.15
77590;BME280;66746;51.328;12.332;2023-07-08T05:11:00;100746.41;;;17.72;63.75
77590;BME280;66746;51.328;12.332;2023-07-08T05:13:27;100758.91;;;17.78;63.68
77590;BME280;66746;51.328;12.332;2023-07-08T05:15:55;100761.34;;;17.82;63.40
77590;BME280;66746;51.328;12.332;2023-07-08T05:18:22;100759.22;;;17.87;63.41
77590;BME280;66746;51.328;12.332;2023-07-08T05:20:51;100754.41;;;17.91;63.62
77590;BME280;66746;51.328;12.332;2023-07-08T05:23:18;100757.75;;;17.96;62.85
77590;BME280;66746;51.328;12.332;2023-07-08T05:25:45;100768.19;;;18.05;63.06
77590;BME280;66746;51.328;12.332;2023-07-08T05:28:11;100756.09;;;18.07;62.00
77590;BME280;66746;51.328;12.332;2023-07-08T05:30:39;100770.00;;;18.34;61.29
77590;BME280;66746;51.328;12.332;2023-07-08T05:33:08;100754.75;;;20.32;56.83
77590;BME280;66746;51.328;12.332;2023-07-08T05:35:35;100749.44;;;22.56;51.40
77590;BME280;66746;51.328;12.332;2023-07-08T05:38:01;100758.91;;;23.85;46.29
77590;BME280;66746;51.328;12.332;2023-07-08T05:40:28;100747.19;;;24.54;43.70
77590;BME280;66746;51.328;12.332;2023-07-08T05:42:55;100740.91;;;24.31;43.59
77590;BME280;66746;51.328;12.332;2023-07-08T05:45:21;100743.25;;;25.07;42.22
77590;BME280;66746;51.328;12.332;2023-07-08T05:47:48;100746.94;;;25.67;41.74
77590;BME280;66746;51.328;12.332;2023-07-08T05:50:16;100746.97;;;26.14;41.06
77590;BME280;66746;51.328;12.332;2023-07-08T05:52:45;100750.56;;;25.48;40.55
77590;BME280;66746;51.328;12.332;2023-07-08T05:55:16;100749.72;;;26.05;40.17
77590;BME280;66746;51.328;12.332;2023-07-08T05:57:43;100741.50;;;25.56;38.96
77590;BME280;66746;51.328;12.332;2023-07-08T06:00:10;100744.19;;;24.87;40.21
77590;BME280;66746;51.328;12.332;2023-07-08T06:02:37;100748.91;;;24.96;42.39
77590;BME280;66746;51.328;12.332;2023-07-08T06:05:04;100752.91;;;25.43;40.63
77590;BME280;66746;51.328;12.332;2023-07-08T06:07:32;100746.06;;;26.04;40.29
77590;BME280;66746;51.328;12.332;2023-07-08T06:09:59;100750.91;;;26.12;39.90
77590;BME280;66746;51.328;12.332;2023-07-08T06:12:26;100746.81;;;24.89;42.02
77590;BME280;66746;51.328;12.332;2023-07-08T06:14:53;100752.06;;;26.38;39.90
77590;BME280;66746;51.328;12.332;2023-07-08T06:17:20;100750.56;;;26.53;41.88
77590;BME280;66746;51.328;12.332;2023-07-08T06:19:46;100754.22;;;26.63;41.03
77590;BME280;66746;51.328;12.332;2023-07-08T06:22:13;100750.22;;;26.85;41.63
77590;BME280;66746;51.328;12.332;2023-07-08T06:24:46;100753.50;;;25.66;42.21
77590;BME280;66746;51.328;12.332;2023-07-08T06:27:13;100754.09;;;25.79;44.81
77590;BME280;66746;51.328;12.332;2023-07-08T06:29:40;100742.75;;;26.30;42.37
77590;BME280;66746;51.328;12.332;2023-07-08T06:32:07;100745.03;;;26.44;42.08
77590;BME280;66746;51.328;12.332;2023-07-08T06:34:34;100753.25;;;26.36;42.10
77590;BME280;66746;51.328;12.332;2023-07-08T06:37:00;100742.13;;;26.26;41.60
77590;BME280;66746;51.328;12.332;2023-07-08T06:39:29;100753.38;;;25.77;44.32
77590;BME280;66746;51.328;12.332;2023-07-08T06:41:57;100752.38;;;25.78;44.13
77590;BME280;66746;51.328;12.332;2023-07-08T06:44:30;100741.56;;;25.94;44.21
77590;BME280;66746;51.328;12.332;2023-07-08T06:46:56;100745.66;;;26.09;44.67
77590;BME280;66746;51.328;12.332;2023-07-08T06:49:23;100747.09;;;26.03;44.34
77590;BME280;66746;51.328;12.332;2023-07-08T06:51:49;100746.81;;;25.87;44.49
77590;BME280;66746;51.328;12.332;2023-07-08T06:54:16;100745.66;;;26.09;43.25
77590;BME280;66746;51.328;12.332;2023-07-08T06:56:42;100740.66;;;26.41;42.25
77590;BME280;66746;51.328;12.332;2023-07-08T06:59:10;100739.81;;;26.31;42.45
77590;BME280;66746;51.328;12.332;2023-07-08T07:01:36;100734.66;;;26.36;40.80
77590;BME280;66746;51.328;12.332;2023-07-08T07:04:03;100735.69;;;26.16;41.67
77590;BME280;66746;51.328;12.332;2023-07-08T07:06:30;100743.44;;;26.41;41.84
77590;BME280;66746;51.328;12.332;2023-07-08T07:08:57;100755.00;;;25.89;42.13
77590;BME280;66746;51.328;12.332;2023-07-08T07:11:23;100740.41;;;26.15;42.30
77590;BME280;66746;51.328;12.332;2023-07-08T07:13:50;100746.06;;;26.04;42.40
77590;BME280;66746;51.328;12.332;2023-07-08T07:16:18;100744.59;;;25.72;44.33
77590;BME280;66746;51.328;12.332;2023-07-08T07:18:44;100741.25;;;25.28;41.32
77590;BME280;66746;51.328;12.332;2023-07-08T07:21:11;100738.88;;;25.83;39.67
77590;BME280;66746;51.328;12.332;2023-07-08T07:23:37;100733.66;;;26.27;41.95
77590;BME280;66746;51.328;12.332;2023-07-08T07:26:04;100738.16;;;27.03;41.68
77590;BME280;66746;51.328;12.332;2023-07-08T07:28:30;100728.66;;;27.24;40.38
77590;BME280;66746;51.328;12.332;2023-07-08T07:30:58;100735.25;;;26.95;39.28
77590;BME280;66746;51.328;12.332;2023-07-08T07:33:27;100737.97;;;26.78;38.43
77590;BME280;66746;51.328;12.332;2023-07-08T07:35:53;100728.03;;;26.56;38.78
77590;BME280;66746;51.328;12.332;2023-07-08T07:38:22;100726.38;;;26.63;38.66
77590;BME280;66746;51.328;12.332;2023-07-08T07:40:52;100726.53;;;26.06;38.34
77590;BME280;66746;51.328;12.332;2023-07-08T07:43:18;100730.72;;;26.39;37.52
77590;BME280;66746;51.328;12.332;2023-07-08T07:45:45;100736.88;;;26.33;39.34
77590;BME280;66746;51.328;12.332;2023-07-08T07:48:11;100726.31;;;26.36;40.08
77590;BME280;66746;51.328;12.332;2023-07-08T07:50:39;100728.03;;;26.56;39.35
77590;BME280;66746;51.328;12.332;2023-07-08T07:53:06;100735.53;;;26.92;38.79
77590;BME280;66746;51.328;12.332;2023-07-08T07:55:32;100728.84;;;26.85;36.65
77590;BME280;66746;51.328;12.332;2023-07-08T07:57:58;100734.72;;;26.82;38.30
77590;BME280;66746;51.328;12.332;2023-07-08T08:00:28;100730.38;;;26.51;36.58
77590;BME280;66746;51.328;12.332;2023-07-08T08:02:54;100735.41;;;26.00;37.89
77590;BME280;66746;51.328;12.332;2023-07-08T08:05:21;100740.09;;;26.28;39.75
77590;BME280;66746;51.328;12.332;2023-07-08T08:07:49;100743.59;;;26.30;39.79
77590;BME280;66746;51.328;12.332;2023-07-08T08:10:15;100730.06;;;26.64;39.60
77590;BME280;66746;51.328;12.332;2023-07-08T08:12:42;100736.50;;;26.64;39.23
77590;BME280;66746;51.328;12.332;2023-07-08T08:15:19;100739.88;;;27.04;37.79
77590;BME280;66746;51.328;12.332;2023-07-08T08:17:46;100735.91;;;27.44;40.03
77590;BME280;66746;51.328;12.332;2023-07-08T08:20:12;100733.41;;;27.13;38.08
77590;BME280;66746;51.328;12.332;2023-07-08T08:22:39;100730.63;;;26.67;37.78
77590;BME280;66746;51.328;12.332;2023-07-08T08:25:07;100730.41;;;26.97;37.33
77590;BME280;66746;51.328;12.332;2023-07-08T08:27:34;100727.53;;;27.17;37.97
77590;BME280;66746;51.328;12.332;2023-07-08T08:30:09;100731.88;;;27.56;36.73
77590;BME280;66746;51.328;12.332;2023-07-08T08:32:36;100727.88;;;28.03;37.49
77590;BME280;66746;51.328;12.332;2023-07-08T08:35:02;100721.75;;;28.60;35.40
77590;BME280;66746;51.328;12.332;2023-07-08T08:37:29;100730.16;;;28.51;34.48
77590;BME280;66746;51.328;12.332;2023-07-08T08:39:56;100728.69;;;28.82;31.68
77590;BME280;66746;51.328;12.332;2023-07-08T08:42:27;100730.72;;;28.72;33.11
77590;BME280;66746;51.328;12.332;2023-07-08T08:44:59;100728.00;;;28.54;33.96
77590;BME280;66746;51.328;12.332;2023-07-08T08:47:39;100733.06;;;27.71;33.41
77590;BME280;66746;51.328;12.332;2023-07-08T08:50:20;100737.44;;;27.29;34.01
77590;BME280;66746;51.328;12.332;2023-07-08T08:52:51;100741.44;;;27.71;35.60
77590;BME280;66746;51.328;12.332;2023-07-08T08:55:18;100734.84;;;28.42;33.09
77590;BME280;66746;51.328;12.332;2023-07-08T08:57:49;100738.75;;;28.75;34.61
77590;BME280;66746;51.328;12.332;2023-07-08T09:00:24;100741.66;;;28.65;30.90
77590;BME280;66746;51.328;12.332;2023-07-08T09:02:59;100732.13;;;29.02;34.28
77590;BME280;66746;51.328;12.332;2023-07-08T09:05:27;100732.69;;;29.47;33.59
77590;BME280;66746;51.328;12.332;2023-07-08T09:08:02;100737.75;;;29.93;31.06
77590;BME280;66746;51.328;12.332;2023-07-08T09:10:39;100738.06;;;29.90;32.11
77590;BME280;66746;51.328;12.332;2023-07-08T09:13:16;100727.41;;;29.36;31.32
77590;BME280;66746;51.328;12.332;2023-07-08T09:15:43;100732.00;;;29.53;29.37
77590;BME280;66746;51.328;12.332;2023-07-08T09:18:17;100728.50;;;29.51;33.15
77590;BME280;66746;51.328;12.332;2023-07-08T09:20:45;100725.50;;;29.78;32.31
77590;BME280;66746;51.328;12.332;2023-07-08T09:23:18;100727.25;;;30.19;31.31
77590;BME280;66746;51.328;12.332;2023-07-08T09:25:49;100727.97;;;30.21;30.37
77590;BME280;66746;51.328;12.332;2023-07-08T09:28:19;100731.81;;;30.04;29.73
77590;BME280;66746;51.328;12.332;2023-07-08T09:30:47;100729.50;;;29.34;29.12
77590;BME280;66746;51.328;12.332;2023-07-08T09:33:15;100718.72;;;29.39;29.46
77590;BME280;66746;51.328;12.332;2023-07-08T09:35:43;100716.63;;;29.57;28.09
77590;BME280;66746;51.328;12.332;2023-07-08T09:38:14;100724.69;;;29.52;29.62
77590;BME280;66746;51.328;12.332;2023-07-08T09:40:46;100723.25;;;29.48;30.37
77590;BME280;66746;51.328;12.332;2023-07-08T09:43:18;100723.66;;;29.61;30.86
77590;BME280;66746;51.328;12.332;2023-07-08T09:45:47;100720.22;;;29.75;29.58
77590;BME280;66746;51.328;12.332;2023-07-08T09:48:16;100717.78;;;29.80;29.97
77590;BME280;66746;51.328;12.332;2023-07-08T09:50:52;100723.09;;;30.07;30.47
77590;BME280;66746;51.328;12.332;2023-07-08T09:53:19;100723.44;;;30.20;28.18
77590;BME280;66746;51.328;12.332;2023-07-08T09:55:46;100721.66;;;29.87;29.45
77590;BME280;66746;51.328;12.332;2023-07-08T09:58:15;100724.81;;;30.16;29.95
77590;BME280;66746;51.328;12.332;2023-07-08T10:00:51;100735.69;;;30.35;30.27
77590;BME280;66746;51.328;12.332;2023-07-08T10:03:24;100736.41;;;30.29;30.15
77590;BME280;66746;51.328;12.332;2023-07-08T10:05:54;100729.19;;;30.03;31.39
77590;BME280;66746;51.328;12.332;2023-07-08T10:08:22;100728.00;;;30.45;33.25
77590;BME280;66746;51.328;12.332;2023-07-08T10:10:54;100727.41;;;30.82;28.48
77590;BME280;66746;51.328;12.332;2023-07-08T10:13:38;100728.97;;;31.09;29.43
77590;BME280;66746;51.328;12.332;2023-07-08T10:16:14;100731.00;;;31.23;29.37
77590;BME280;66746;51.328;12.332;2023-07-08T10:18:42;100733.47;;;31.18;30.70
77590;BME280;66746;51.328;12.332;2023-07-08T10:21:12;100729.91;;;31.32;29.93
77590;BME280;66746;51.328;12.332;2023-07-08T10:23:51;100729.16;;;31.54;28.49
77590;BME280;66746;51.328;12.332;2023-07-08T10:26:25;100722.97;;;31.89;27.23
77590;BME280;66746;51.328;12.332;2023-07-08T10:29:01;100711.72;;;32.20;27.31
77590;BME280;66746;51.328;12.332;2023-07-08T10:31:41;100709.97;;;31.66;28.08
77590;BME280;66746;51.328;12.332;2023-07-08T10:34:33;100706.47;;;31.25;26.70
77590;BME280;66746;51.328;12.332;2023-07-08T10:37:07;100706.78;;;31.30;29.26
77590;BME280;66746;51.328;12.332;2023-07-08T10:39:44;100703.25;;;31.44;30.20
77590;BME280;66746;51.328;12.332;2023-07-08T10:42:26;100694.28;;;31.79;27.67
77590;BME280;66746;51.328;12.332;2023-07-08T10:45:06;100700.00;;;31.63;27.16
77590;BME280;66746;51.328;12.332;2023-07-08T10:47:45;100697.47;;;31.68;25.14
77590;BME280;66746;51.328;12.332;2023-07-08T10:50:35;100695.16;;;31.49;25.24
77590;BME280;66746;51.328;12.332;2023-07-08T10:53:31;100689.19;;;32.05;22.98
77590;BME280;66746;51.328;12.332;2023-07-08T10:56:07;100695.81;;;32.12;22.66
77590;BME280;66746;51.328;12.332;2023-07-08T10:59:02;100686.41;;;31.75;23.44
77590;BME280;66746;51.328;12.332;2023-07-08T11:01:37;100692.56;;;32.01;23.10
77590;BME280;66746;51.328;12.332;2023-07-08T11:04:22;100694.13;;;32.41;24.23
77590;BME280;66746;51.328;12.332;2023-07-08T11:06:55;100698.50;;;31.75;23.97
77590;BME280;66746;51.328;12.332;2023-07-08T11:09:26;100692.50;;;31.78;22.68
77590;BME280;66746;51.328;12.332;2023-07-08T11:11:59;100698.69;;;32.04;24.94
77590;BME280;66746;51.328;12.332;2023-07-08T11:14:30;100684.06;;;32.32;24.10
77590;BME280;66746;51.328;12.332;2023-07-08T11:17:07;100686.56;;;32.49;24.00
77590;BME280;66746;51.328;12.332;2023-07-08T11:19:40;100691.41;;;32.55;23.55
77590;BME280;66746;51.328;12.332;2023-07-08T11:22:10;100691.41;;;31.87;21.84
77590;BME280;66746;51.328;12.332;2023-07-08T11:24:40;100681.69;;;31.75;24.20
77590;BME280;66746;51.328;12.332;2023-07-08T11:27:13;100687.03;;;31.93;24.21
77590;BME280;66746;51.328;12.332;2023-07-08T11:29:45;100687.34;;;32.35;24.86
77590;BME280;66746;51.328;12.332;2023-07-08T11:32:16;100686.47;;;31.97;24.15
77590;BME280;66746;51.328;12.332;2023-07-08T11:34:48;100689.16;;;31.60;21.93
77590;BME280;66746;51.328;12.332;2023-07-08T11:37:17;100680.13;;;31.42;23.08
77590;BME280;66746;51.328;12.332;2023-07-08T11:39:45;100689.69;;;31.17;22.80
77590;BME280;66746;51.328;12.332;2023-07-08T11:42:17;100676.47;;;30.79;23.67
77590;BME280;66746;51.328;12.332;2023-07-08T11:44:48;100677.16;;;30.97;26.67
77590;BME280;66746;51.328;12.332;2023-07-08T11:47:19;100668.25;;;30.93;24.26
77590;BME280;66746;51.328;12.332;2023-07-08T11:49:47;100661.38;;;30.96;26.62
77590;BME280;66746;51.328;12.332;2023-07-08T11:52:17;100660.66;;;31.02;26.40
77590;BME280;66746;51.328;12.332;2023-07-08T11:54:46;100663.59;;;30.45;23.19
77590;BME280;66746;51.328;12.332;2023-07-08T11:57:17;100668.13;;;30.54;22.26
77590;BME280;66746;51.328;12.332;2023-07-08T11:59:46;100664.69;;;31.07;22.87
77590;BME280;66746;51.328;12.332;2023-07-08T12:02:14;100656.16;;;30.93;22.01
77590;BME280;66746;51.328;12.332;2023-07-08T12:04:58;100673.91;;;31.16;20.75
77590;BME280;66746;51.328;12.332;2023-07-08T12:07:31;100658.41;;;31.36;21.98
77590;BME280;66746;51.328;12.332;2023-07-08T12:10:03;100666.16;;;31.26;23.71
77590;BME280;66746;51.328;12.332;2023-07-08T12:12:35;100656.34;;;31.30;20.69
77590;BME280;66746;51.328;12.332;2023-07-08T12:15:11;100653.63;;;31.75;22.63
77590;BME280;66746;51.328;12.332;2023-07-08T12:17:39;100655.59;;;31.44;22.26
77590;BME280;66746;51.328;12.332;2023-07-08T12:20:19;100660.38;;;31.27;21.80
77590;BME280;66746;51.328;12.332;2023-07-08T12:22:48;100646.63;;;31.71;22.85
77590;BME280;66746;51.328;12.332;2023-07-08T12:25:17;100660.72;;;31.86;20.70
77590;BME280;66746;51.328;12.332;2023-07-08T12:27:45;100651.16;;;32.03;19.72
77590;BME280;66746;51.328;12.332;2023-07-08T12:30:13;100645.91;;;32.00;19.96
77590;BME280;66746;51.328;12.332;2023-07-08T12:32:41;100647.63;;;32.23;20.28
77590;BME280;66746;51.328;12.332;2023-07-08T12:35:19;100644.75;;;32.32;20.97
77590;BME280;66746;51.328;12.332;2023-07-08T12:37:47;100650.41;;;32.09;19.96
77590;BME280;66746;51.328;12.332;2023-07-08T12:40:14;100653.25;;;32.23;20.20
77590;BME280;66746;51.328;12.332;2023-07-08T12:42:40;100644.88;;;31.70;20.82
77590;BME280;66746;51.328;12.332;2023-07-08T12:45:13;100643.16;;;31.92;20.88
77590;BME280;66746;51.328;12.332;2023-07-08T12:47:43;100642.84;;;32.47;20.21
77590;BME280;66746;51.328;12.332;2023-07-08T12:50:12;100623.59;;;32.58;19.90
77590;BME280;66746;51.328;12.332;2023-07-08T12:52:39;100633.69;;;33.11;20.34